Time;durP1;ratioP1;P1;durP2;ratioP2;P2;SDS_P1;SDS_P2;PMS_P1;PMS_P2;Temp;Humidity;BMP_temperature;BMP_pressure;BME280_temperature;BME280_humidity;BME280_pressure;Samples;Min_cycle;Max_cycle;Signal;HPM_P1;HPM_P2
2022/04/24 00:01:14;;;;;;;3.55;2.30;;;21.20;47.60;;;;;;4995282;28;20073;-56
2022/04/24 00:03:40;;;;;;;3.22;2.10;;;21.20;47.60;;;;;;4995652;28;20177;-56
2022/04/24 00:06:05;;;;;;;3.88;2.50;;;21.20;47.60;;;;;;4995819;28;20034;-56
2022/04/24 00:08:31;;;;;;;4.88;2.42;;;21.20;47.50;;;;;;4995069;28;20096;-56
2022/04/24 00:10:56;;;;;;;2.80;1.98;;;21.20;47.50;;;;;;4995494;28;20046;-56
2022/04/24 00:13:23;;;;;;;3.92;2.50;;;21.20;47.50;;;;;;4994859;28;20509;-55
2022/04/24 00:15:49;;;;;;;4.65;2.17;;;21.20;47.50;;;;;;4994805;28;20053;-56
2022/04/24 00:18:15;;;;;;;3.03;2.25;;;21.20;47.50;;;;;;4994474;28;20042;-56
2022/04/24 00:20:42;;;;;;;3.67;2.67;;;21.20;47.50;;;;;;4994142;28;20053;-56
2022/04/24 00:23:08;;;;;;;3.85;2.28;;;21.20;47.50;;;;;;4994983;28;20058;-55
2022/04/24 00:25:33;;;;;;;3.13;2.42;;;21.20;47.50;;;;;;4995382;28;20053;-55
2022/04/24 00:28:00;;;;;;;3.10;2.30;;;21.20;47.50;;;;;;4995325;28;20105;-56
2022/04/24 00:30:26;;;;;;;3.88;2.40;;;21.20;47.50;;;;;;4994592;28;20104;-56
2022/04/24 00:32:52;;;;;;;3.42;2.10;;;21.10;47.40;;;;;;4994574;28;20486;-56
2022/04/24 00:35:17;;;;;;;3.72;2.42;;;21.10;47.40;;;;;;4995343;28;20520;-56
2022/04/24 00:37:43;;;;;;;4.00;2.45;;;21.10;47.40;;;;;;4994143;28;20046;-56
2022/04/24 00:40:09;;;;;;;3.05;2.10;;;21.10;47.40;;;;;;4995045;28;20038;-56
2022/04/24 00:42:35;;;;;;;4.07;2.28;;;21.10;47.40;;;;;;4994577;28;20046;-56
2022/04/24 00:45:00;;;;;;;3.22;2.28;;;21.10;47.40;;;;;;4995039;28;20379;-56
2022/04/24 00:47:26;;;;;;;3.22;2.20;;;21.10;47.40;;;;;;4994914;28;20054;-56
2022/04/24 00:49:51;;;;;;;3.60;2.00;;;21.10;47.40;;;;;;4994194;28;20042;-56
2022/04/24 00:52:17;;;;;;;2.85;2.35;;;21.10;47.40;;;;;;4994051;28;20184;-56
2022/04/24 00:54:43;;;;;;;2.88;2.38;;;21.10;47.40;;;;;;4993183;28;20050;-56
2022/04/24 00:57:09;;;;;;;5.72;2.25;;;21.10;47.40;;;;;;4994176;28;20053;-56
2022/04/24 00:59:34;;;;;;;4.15;2.47;;;21.10;47.30;;;;;;4994980;28;20128;-56
2022/04/24 01:02:02;;;;;;;3.72;2.40;;;21.00;47.30;;;;;;4994788;28;20441;-56
2022/04/24 01:04:28;;;;;;;;;;;21.00;47.30;;;;;;4994385;28;20042;-56
2022/04/24 01:06:53;;;;;;;4.25;2.22;;;21.00;47.20;;;;;;4994207;28;19929;-57
2022/04/24 01:09:20;;;;;;;3.22;2.10;;;21.00;47.30;;;;;;4994726;28;20038;-57
2022/04/24 01:11:47;;;;;;;3.85;2.63;;;21.00;47.30;;;;;;4994072;28;20056;-57
2022/04/24 01:14:13;;;;;;;4.05;2.30;;;21.00;47.30;;;;;;4994702;28;20034;-57
2022/04/24 01:16:39;;;;;;;3.28;2.50;;;21.00;47.30;;;;;;4994170;28;20042;-57
2022/04/24 01:19:05;;;;;;;3.20;2.15;;;21.00;47.20;;;;;;4993905;28;20078;-56
2022/04/24 01:21:31;;;;;;;4.53;2.22;;;20.90;47.20;;;;;;4994253;28;20097;-57
2022/04/24 01:23:57;;;;;;;2.67;2.08;;;21.00;47.20;;;;;;4993955;28;20058;-57
2022/04/24 01:26:22;;;;;;;3.08;2.35;;;20.90;47.20;;;;;;4993557;28;20146;-57
2022/04/24 01:28:48;;;;;;;2.55;2.08;;;20.90;47.20;;;;;;4994009;28;20047;-56
2022/04/24 01:31:13;;;;;;;4.45;2.42;;;20.90;47.10;;;;;;4994030;28;20503;-57
2022/04/24 01:33:39;;;;;;;3.35;2.25;;;20.90;47.10;;;;;;4992500;28;20521;-57
2022/04/24 01:36:04;;;;;;;3.05;2.15;;;20.90;47.10;;;;;;4993844;28;20502;-57
2022/04/24 01:38:30;;;;;;;3.78;2.30;;;20.90;47.10;;;;;;4994255;28;20497;-57
2022/04/24 01:40:55;;;;;;;4.22;2.50;;;20.90;47.20;;;;;;4993097;28;20526;-56
2022/04/24 01:43:21;;;;;;;3.50;2.20;;;20.90;47.20;;;;;;4994109;28;20038;-56
2022/04/24 01:45:46;;;;;;;2.80;2.10;;;20.90;47.20;;;;;;4993480;28;20050;-57
2022/04/24 01:48:12;;;;;;;3.90;2.00;;;20.90;47.20;;;;;;4993100;28;20046;-57
2022/04/24 01:50:37;;;;;;;2.92;2.10;;;20.90;47.20;;;;;;4994100;28;20042;-57
2022/04/24 01:53:03;;;;;;;3.83;2.17;;;20.90;47.20;;;;;;4992775;28;20050;-57
2022/04/24 01:55:28;;;;;;;2.15;1.85;;;20.90;47.20;;;;;;4993902;28;20426;-57
2022/04/24 01:57:54;;;;;;;3.60;2.30;;;20.90;47.10;;;;;;4993381;28;20053;-57
2022/04/24 02:00:20;;;;;;;4.03;2.30;;;20.90;47.20;;;;;;4993160;28;20042;-56
2022/04/24 02:02:46;;;;;;;3.28;2.10;;;20.80;47.10;;;;;;4991827;28;20038;-57
2022/04/24 02:05:12;;;;;;;3.22;2.10;;;20.80;47.10;;;;;;4993442;28;20105;-57
2022/04/24 02:07:37;;;;;;;3.08;2.20;;;20.80;47.10;;;;;;4992189;28;20058;-57
2022/04/24 02:10:04;;;;;;;2.80;2.17;;;20.80;47.10;;;;;;4993458;28;20046;-57
2022/04/24 02:12:30;;;;;;;2.72;2.10;;;20.80;47.10;;;;;;4993766;28;20129;-57
2022/04/24 02:14:56;;;;;;;3.53;2.42;;;20.80;47.10;;;;;;4992631;28;20046;-57
2022/04/24 02:17:21;;;;;;;3.28;2.28;;;20.80;47.10;;;;;;4993725;28;20061;-56
2022/04/24 02:19:47;;;;;;;3.88;2.58;;;20.80;47.10;;;;;;4993210;28;20050;-56
2022/04/24 02:22:12;;;;;;;3.95;2.25;;;20.80;47.20;;;;;;4992393;28;20058;-57
2022/04/24 02:24:38;;;;;;;2.80;1.90;;;20.80;47.10;;;;;;4993455;28;20049;-57
2022/04/24 02:27:04;;;;;;;3.30;1.92;;;20.80;47.10;;;;;;4993483;28;20054;-57
2022/04/24 02:29:29;;;;;;;3.33;2.15;;;20.80;47.10;;;;;;4992745;28;20042;-57
2022/04/24 02:31:55;;;;;;;3.20;2.35;;;20.80;47.10;;;;;;4992860;28;20054;-56
2022/04/24 02:34:20;;;;;;;2.78;2.08;;;20.70;47.10;;;;;;4993377;28;20046;-57
2022/04/24 02:36:46;;;;;;;3.30;2.13;;;20.80;47.10;;;;;;4992273;28;20043;-57
2022/04/24 02:39:11;;;;;;;3.40;2.15;;;20.70;47.10;;;;;;4993506;28;20050;-56
2022/04/24 02:41:37;;;;;;;5.30;2.30;;;20.70;47.00;;;;;;4992984;28;20085;-56
2022/04/24 02:44:03;;;;;;;3.30;2.20;;;20.70;47.10;;;;;;4991680;28;20042;-56
2022/04/24 02:46:28;;;;;;;3.22;2.10;;;20.70;47.10;;;;;;4992802;28;20549;-57
2022/04/24 02:48:54;;;;;;;3.67;2.33;;;20.70;47.00;;;;;;4993028;28;20134;-57
2022/04/24 02:51:19;;;;;;;3.15;2.10;;;20.70;47.10;;;;;;4992224;28;20046;-57
2022/04/24 02:53:45;;;;;;;2.72;1.70;;;20.70;47.10;;;;;;4992880;28;20046;-57
2022/04/24 02:56:10;;;;;;;3.88;2.35;;;20.70;47.10;;;;;;4992754;28;20129;-57
2022/04/24 02:58:38;;;;;;;3.22;2.22;;;20.70;47.10;;;;;;4993077;28;20129;-57
2022/04/24 03:01:04;;;;;;;2.30;1.90;;;20.70;47.10;;;;;;4993019;28;20064;-56
2022/04/24 03:03:29;;;;;;;2.47;1.80;;;20.70;47.10;;;;;;4992210;28;20550;-57
2022/04/24 03:05:55;;;;;;;2.17;1.88;;;20.70;47.10;;;;;;4992261;28;20038;-57
2022/04/24 03:08:21;;;;;;;3.05;2.22;;;20.70;47.10;;;;;;4993178;28;20594;-57
2022/04/24 03:10:47;;;;;;;3.00;2.00;;;20.60;47.10;;;;;;4992184;28;20049;-57
2022/04/24 03:13:12;;;;;;;2.30;1.83;;;20.60;47.10;;;;;;4993038;28;20434;-57
2022/04/24 03:15:38;;;;;;;3.25;2.17;;;20.60;47.10;;;;;;4992839;28;20478;-56
2022/04/24 03:18:04;;;;;;;3.38;2.30;;;20.60;47.10;;;;;;4992077;28;20070;-57
2022/04/24 03:20:30;;;;;;;3.22;2.13;;;20.60;47.10;;;;;;4992967;28;20070;-57
2022/04/24 03:22:56;;;;;;;3.35;2.30;;;20.60;47.10;;;;;;4992641;28;20058;-57
2022/04/24 03:25:21;;;;;;;3.25;2.10;;;20.60;47.10;;;;;;4992059;28;20045;-56
2022/04/24 03:27:46;;;;;;;4.13;2.10;;;20.60;47.10;;;;;;4992248;28;20409;-56
2022/04/24 03:30:12;;;;;;;2.70;1.90;;;20.60;47.10;;;;;;4992977;28;20043;-57
2022/04/24 03:32:38;;;;;;;2.13;1.73;;;20.60;47.10;;;;;;4991577;28;20057;-56
2022/04/24 03:35:05;;;;;;;2.90;2.00;;;20.60;47.10;;;;;;4992834;28;20074;-57
2022/04/24 03:37:31;;;;;;;2.90;1.83;;;20.60;47.10;;;;;;4992872;28;20081;-56
2022/04/24 03:39:57;;;;;;;2.95;2.10;;;20.60;47.10;;;;;;4991629;28;20077;-56
2022/04/24 03:42:22;;;;;;;2.70;1.90;;;20.50;47.00;;;;;;4992896;28;20050;-57
2022/04/24 03:44:48;;;;;;;2.88;1.83;;;20.60;47.10;;;;;;4992260;28;20074;-57
2022/04/24 03:47:14;;;;;;;2.47;1.77;;;20.50;47.00;;;;;;4992032;28;20042;-56
2022/04/24 03:49:40;;;;;;;2.75;1.70;;;20.50;47.00;;;;;;4992370;28;20105;-56
2022/04/24 03:52:06;;;;;;;4.00;2.15;;;20.50;47.00;;;;;;4992329;28;20438;-57
2022/04/24 03:54:32;;;;;;;2.90;2.15;;;20.50;47.00;;;;;;4991826;28;20536;-57
2022/04/24 03:56:57;;;;;;;2.85;1.83;;;20.50;47.00;;;;;;4995806;28;20050;-57
2022/04/24 03:59:23;;;;;;;3.90;2.38;;;20.50;47.00;;;;;;4995982;28;20468;-57
2022/04/24 04:01:48;;;;;;;2.95;1.75;;;20.50;47.00;;;;;;4994854;28;20046;-57
2022/04/24 04:04:14;;;;;;;3.10;1.95;;;20.50;47.00;;;;;;4995384;28;20046;-57
2022/04/24 04:06:39;;;;;;;2.72;1.98;;;20.50;47.00;;;;;;4994186;28;20057;-57
2022/04/24 04:09:05;;;;;;;2.95;1.80;;;20.50;47.00;;;;;;4995762;28;20050;-57
2022/04/24 04:11:30;;;;;;;2.95;2.03;;;20.50;46.90;;;;;;4995671;28;20042;-57
2022/04/24 04:13:56;;;;;;;2.42;1.80;;;20.50;46.90;;;;;;4994856;28;20054;-56
2022/04/24 04:16:22;;;;;;;3.55;2.38;;;20.40;46.90;;;;;;4995426;28;20046;-57
2022/04/24 04:18:48;;;;;;;2.53;1.85;;;20.50;46.90;;;;;;4995509;28;20061;-57
2022/04/24 04:21:14;;;;;;;2.33;1.80;;;20.50;46.90;;;;;;4995080;28;20039;-56
2022/04/24 04:23:39;;;;;;;2.60;1.75;;;20.50;46.90;;;;;;4995424;28;20489;-56
2022/04/24 04:26:05;;;;;;;2.50;1.77;;;20.50;46.90;;;;;;4995545;28;20042;-56
2022/04/24 04:28:30;;;;;;;3.05;2.05;;;20.50;46.90;;;;;;4994719;28;20042;-56
2022/04/24 04:30:56;;;;;;;2.33;1.65;;;20.50;46.90;;;;;;4995155;28;20398;-57
2022/04/24 04:33:21;;;;;;;2.75;1.90;;;20.40;46.80;;;;;;4993854;28;20062;-57
2022/04/24 04:35:47;;;;;;;2.60;1.73;;;20.50;46.80;;;;;;4994511;28;20050;-56
2022/04/24 04:38:14;;;;;;;2.67;1.77;;;20.50;46.90;;;;;;4995288;28;20374;-56
2022/04/24 04:40:40;;;;;;;1.95;1.55;;;20.50;46.90;;;;;;4995017;28;20050;-57
2022/04/24 04:43:06;;;;;;;2.75;2.03;;;20.50;46.90;;;;;;4994396;28;20042;-56
2022/04/24 04:45:32;;;;;;;2.85;1.92;;;20.50;46.90;;;;;;4995312;28;20046;-56
2022/04/24 04:47:57;;;;;;;3.10;1.77;;;20.50;46.90;;;;;;4994791;28;20556;-56
2022/04/24 04:50:23;;;;;;;3.05;1.85;;;20.50;46.80;;;;;;4994366;28;20386;-56
2022/04/24 04:52:48;;;;;;;2.83;1.90;;;20.50;46.80;;;;;;4994687;28;20046;-56
2022/04/24 04:55:14;;;;;;;3.10;1.90;;;20.50;46.80;;;;;;4994978;28;20053;-56
2022/04/24 04:57:40;;;;;;;2.92;1.67;;;20.50;46.80;;;;;;4994090;28;20070;-57
2022/04/24 05:00:06;;;;;;;2.70;1.80;;;20.50;46.80;;;;;;4994959;28;20030;-56
2022/04/24 05:02:36;;;;;;;3.22;2.17;;;20.50;46.70;;;;;;4994931;28;20058;-57
2022/04/24 05:05:03;;;;;;;2.67;1.92;;;20.60;46.80;;;;;;4993949;28;20117;-56
2022/04/24 05:07:28;;;;;;;2.45;1.77;;;20.60;46.70;;;;;;4993811;28;20491;-56
2022/04/24 05:09:54;;;;;;;3.35;2.20;;;20.60;46.70;;;;;;4993738;28;20542;-57
2022/04/24 05:12:23;;;;;;;3.95;1.88;;;20.60;46.60;;;;;;4994888;28;20057;-56
2022/04/24 05:14:49;;;;;;;3.10;1.75;;;20.70;46.70;;;;;;4994386;28;20122;-56
2022/04/24 05:17:14;;;;;;;2.78;1.85;;;20.70;46.60;;;;;;4993951;28;20137;-56
2022/04/24 05:19:40;;;;;;;2.00;1.67;;;20.70;46.60;;;;;;4994443;28;20046;-57
2022/04/24 05:22:05;;;;;;;3.05;2.05;;;20.70;46.60;;;;;;4994537;28;20042;-57
2022/04/24 05:24:31;;;;;;;2.28;1.63;;;20.70;47.30;;;;;;4993723;28;20042;-57
2022/04/24 05:26:56;;;;;;;3.03;1.67;;;20.70;46.70;;;;;;4994019;28;20093;-57
2022/04/24 05:29:22;;;;;;;2.88;1.95;;;20.70;46.70;;;;;;4994387;28;20049;-56
2022/04/24 05:31:47;;;;;;;3.05;1.80;;;20.80;46.80;;;;;;4993133;28;20062;-56
2022/04/24 05:34:13;;;;;;;2.15;1.92;;;20.80;46.80;;;;;;4994482;28;20050;-57
2022/04/24 05:36:39;;;;;;;2.67;1.98;;;20.80;46.80;;;;;;4993949;28;20050;-56
2022/04/24 05:39:04;;;;;;;2.60;1.92;;;20.80;46.70;;;;;;4993333;28;20042;-56
2022/04/24 05:41:30;;;;;;;3.10;1.98;;;20.80;46.80;;;;;;4994098;28;20210;-56
2022/04/24 05:43:55;;;;;;;3.28;2.00;;;20.80;46.70;;;;;;4993692;28;20078;-57
2022/04/24 05:46:21;;;;;;;2.95;1.90;;;20.80;46.70;;;;;;4993243;28;20157;-57
2022/04/24 05:48:46;;;;;;;2.78;1.60;;;20.80;46.80;;;;;;4993459;28;20078;-56
2022/04/24 05:51:12;;;;;;;1.83;1.55;;;20.80;46.90;;;;;;4993976;28;20118;-56
2022/04/24 05:53:37;;;;;;;2.78;1.63;;;20.80;46.90;;;;;;4993286;28;20053;-57
2022/04/24 05:56:03;;;;;;;4.03;1.85;;;20.80;46.90;;;;;;4993395;28;20557;-57
2022/04/24 05:58:29;;;;;;;3.28;1.70;;;20.90;46.90;;;;;;4993971;28;20042;-57
2022/04/24 06:00:54;;;;;;;2.60;1.65;;;20.90;46.90;;;;;;4992926;28;20473;-57
2022/04/24 06:03:20;;;;;;;2.40;1.60;;;20.80;46.90;;;;;;4993809;28;20050;-57
2022/04/24 06:05:47;;;;;;;2.42;1.55;;;20.90;47.00;;;;;;4993556;28;20049;-56
2022/04/24 06:08:12;;;;;;;2.15;1.55;;;20.90;46.90;;;;;;4992761;28;20494;-56
2022/04/24 06:10:38;;;;;;;2.35;1.63;;;20.90;46.90;;;;;;4993405;28;20042;-57
2022/04/24 06:13:04;;;;;;;3.10;1.60;;;20.90;46.90;;;;;;4993520;28;20042;-57
2022/04/24 06:15:29;;;;;;;2.03;1.60;;;20.90;46.90;;;;;;4992672;28;20074;-56
2022/04/24 06:17:57;;;;;;;3.65;1.77;;;20.90;46.90;;;;;;4992794;28;20054;-57
2022/04/24 06:20:23;;;;;;;2.65;1.73;;;20.90;46.90;;;;;;4992301;28;20478;-57
2022/04/24 06:22:50;;;;;;;2.15;1.70;;;21.00;47.00;;;;;;4993017;28;20050;-56
2022/04/24 06:25:16;;;;;;;3.20;1.85;;;21.00;47.10;;;;;;4993363;28;20430;-57
2022/04/24 06:27:42;;;;;;;3.20;1.63;;;21.00;47.10;;;;;;4992486;28;20046;-58
2022/04/24 06:30:09;;;;;;;2.30;1.40;;;21.00;47.10;;;;;;4993115;28;20056;-59
2022/04/24 06:32:39;;;;;;;4.63;1.52;;;21.00;47.30;;;;;;4993088;28;20063;-57
2022/04/24 06:35:05;;;;;;;2.85;1.80;;;21.00;47.30;;;;;;4992757;28;20050;-57
2022/04/24 06:37:31;;;;;;;2.10;1.50;;;21.10;47.30;;;;;;4993286;28;20055;-57
2022/04/24 06:39:56;;;;;;;2.90;1.60;;;21.10;47.40;;;;;;4992881;28;20050;-57
2022/04/24 06:42:22;;;;;;;2.10;1.50;;;21.10;47.50;;;;;;4992603;28;20046;-57
2022/04/24 06:44:48;;;;;;;2.75;1.67;;;21.10;47.50;;;;;;4993098;28;20517;-57
2022/04/24 06:47:13;;;;;;;3.35;1.77;;;21.10;47.60;;;;;;4993060;28;20042;-59
2022/04/24 06:49:39;;;;;;;4.10;1.58;;;21.10;47.70;;;;;;4991900;28;20562;-58
2022/04/24 06:52:05;;;;;;;2.38;1.60;;;21.20;47.90;;;;;;4993314;28;20050;-58
2022/04/24 06:54:30;;;;;;;2.50;1.50;;;21.20;48.10;;;;;;4993116;28;20051;-58
2022/04/24 06:57:01;;;;;;;3.08;1.45;;;21.20;48.10;;;;;;4990539;28;20125;-57
2022/04/24 06:59:27;;;;;;;8.52;1.70;;;21.20;48.00;;;;;;4984641;28;20035;-57
2022/04/24 07:01:52;;;;;;;2.60;1.55;;;21.30;48.20;;;;;;4982851;28;20049;-55
2022/04/24 07:04:18;;;;;;;2.47;1.58;;;21.30;48.20;;;;;;4980145;28;20061;-56
2022/04/24 07:06:43;;;;;;;3.78;1.60;;;21.30;48.20;;;;;;4981516;28;20046;-57
2022/04/24 07:09:10;;;;;;;3.13;1.85;;;21.30;48.20;;;;;;4988145;28;20524;-58
2022/04/24 07:11:36;;;;;;;2.83;1.63;;;21.30;48.20;;;;;;4976791;28;20061;-58
2022/04/24 07:14:01;;;;;;;3.75;1.77;;;21.30;48.20;;;;;;4973011;28;20415;-57
2022/04/24 07:16:27;;;;;;;4.45;1.50;;;21.30;48.20;;;;;;4972330;28;20512;-57
2022/04/24 07:18:52;;;;;;;3.88;1.48;;;21.30;48.20;;;;;;4973233;28;20129;-57
2022/04/24 07:21:18;;;;;;;3.20;1.63;;;21.40;48.30;;;;;;4972365;28;20131;-57
2022/04/24 07:23:43;;;;;;;5.75;1.73;;;21.40;48.30;;;;;;4990514;28;20057;-56
2022/04/24 07:26:09;;;;;;;2.60;1.48;;;21.40;48.30;;;;;;4992786;28;20146;-56
2022/04/24 07:28:35;;;;;;;3.53;1.90;;;21.40;48.30;;;;;;4992805;28;20050;-57
2022/04/24 07:31:00;;;;;;;3.42;1.55;;;21.40;48.30;;;;;;4993988;28;20058;-57
2022/04/24 07:33:26;;;;;;;5.95;1.50;;;21.40;48.30;;;;;;4996227;28;20061;-57
2022/04/24 07:35:51;;;;;;;6.22;1.90;;;21.40;48.20;;;;;;4995820;28;20042;-57
2022/04/24 07:38:17;;;;;;;3.05;1.55;;;21.50;48.30;;;;;;4995715;28;20470;-57
2022/04/24 07:40:42;;;;;;;3.25;1.58;;;21.50;48.40;;;;;;4996079;28;20509;-58
2022/04/24 07:43:09;;;;;;;4.57;1.40;;;21.50;48.40;;;;;;4996425;28;20054;-57
2022/04/24 07:45:36;;;;;;;2.88;1.58;;;21.50;48.40;;;;;;4995509;28;20038;-58
2022/04/24 07:48:03;;;;;;;4.22;1.60;;;21.50;48.50;;;;;;4995795;28;20433;-57
2022/04/24 07:50:30;;;;;;;6.15;1.70;;;21.50;48.60;;;;;;4996079;28;20502;-57
2022/04/24 07:52:56;;;;;;;4.63;1.60;;;21.60;48.70;;;;;;4995162;28;20046;-57
2022/04/24 07:55:22;;;;;;;5.72;1.83;;;21.60;48.70;;;;;;4994526;28;20046;-57
2022/04/24 07:57:48;;;;;;;3.97;1.60;;;21.60;48.80;;;;;;4995952;28;20088;-57
2022/04/24 08:00:15;;;;;;;3.35;1.40;;;21.60;48.80;;;;;;4994871;28;20086;-57
2022/04/24 08:02:57;;;;;;;3.28;1.60;;;21.70;48.80;;;;;;4995940;28;20101;-57
2022/04/24 08:05:39;;;;;;;4.70;1.55;;;21.60;48.80;;;;;;4996053;28;20050;-57
2022/04/24 08:08:21;;;;;;;5.43;1.50;;;21.60;48.80;;;;;;4995481;28;20042;-57
2022/04/24 08:10:48;;;;;;;2.78;1.40;;;21.70;48.80;;;;;;4995785;28;20085;-57
2022/04/24 08:13:14;;;;;;;5.18;1.40;;;21.70;48.80;;;;;;4995146;28;20046;-57
2022/04/24 08:15:40;;;;;;;3.38;1.42;;;21.70;48.90;;;;;;4995299;28;20134;-57
2022/04/24 08:18:06;;;;;;;3.38;1.58;;;21.70;48.80;;;;;;4995873;28;20044;-57
2022/04/24 08:20:32;;;;;;;3.65;1.35;;;21.80;48.90;;;;;;4985159;28;20045;-57
2022/04/24 08:22:59;;;;;;;1.73;1.25;;;21.80;48.90;;;;;;4985025;28;20047;-58
2022/04/24 08:25:25;;;;;;;3.60;1.60;;;21.80;48.90;;;;;;4992761;28;20490;-59
2022/04/24 08:27:52;;;;;;;3.15;1.55;;;21.80;48.90;;;;;;4994132;28;20438;-58
2022/04/24 08:30:18;;;;;;;2.20;1.33;;;21.80;48.90;;;;;;4994885;28;20042;-57
2022/04/24 08:32:44;;;;;;;2.80;1.20;;;21.80;48.80;;;;;;4994875;28;20058;-58
2022/04/24 08:35:11;;;;;;;5.60;1.85;;;21.80;48.80;;;;;;4991782;28;20050;-56
2022/04/24 08:37:37;;;;;;;2.30;1.40;;;21.80;48.80;;;;;;4994688;28;20077;-56
2022/04/24 08:40:06;;;;;;;2.63;1.25;;;21.90;48.70;;;;;;4994840;28;20529;-56
2022/04/24 08:42:33;;;;;;;2.33;1.17;;;21.90;48.60;;;;;;4992487;28;20516;-56
2022/04/24 08:44:58;;;;;;;3.55;1.38;;;21.90;48.50;;;;;;4994767;28;20438;-56
2022/04/24 08:47:25;;;;;;;3.63;1.23;;;21.90;48.40;;;;;;4995044;28;20050;-56
2022/04/24 08:49:54;;;;;;;2.38;1.35;;;21.90;48.40;;;;;;4994018;28;20047;-56
2022/04/24 08:52:20;;;;;;;3.83;1.20;;;21.90;48.30;;;;;;4995166;28;20046;-56
2022/04/24 08:54:46;;;;;;;2.15;1.30;;;21.90;48.30;;;;;;4994637;28;20046;-57
2022/04/24 08:57:14;;;;;;;5.20;1.20;;;21.90;48.20;;;;;;4994350;28;20142;-57
2022/04/24 08:59:40;;;;;;;1.35;1.00;;;21.90;48.10;;;;;;4994425;28;20039;-57
2022/04/24 09:02:06;;;;;;;2.97;1.40;;;21.90;48.10;;;;;;4993868;28;20042;-57
2022/04/24 09:04:35;;;;;;;2.83;1.23;;;21.90;48.00;;;;;;4994612;28;20038;-57
2022/04/24 09:07:02;;;;;;;2.65;1.10;;;21.90;47.90;;;;;;4994531;28;20047;-57
2022/04/24 09:09:27;;;;;;;5.00;1.45;;;21.90;47.90;;;;;;4993931;28;20074;-58
2022/04/24 09:12:05;;;;;;;2.78;1.08;;;22.00;47.80;;;;;;4994944;28;20057;-59
2022/04/24 09:14:32;;;;;;;3.00;1.30;;;21.90;47.80;;;;;;4993247;28;20056;-58
2022/04/24 09:17:00;;;;;;;2.50;1.30;;;22.00;47.90;;;;;;4993560;28;20046;-59
2022/04/24 09:19:26;;;;;;;3.35;1.50;;;22.00;48.00;;;;;;4994574;28;20490;-59
2022/04/24 09:21:52;;;;;;;1.63;1.15;;;22.00;48.10;;;;;;4994307;28;20057;-58
2022/04/24 09:24:18;;;;;;;3.17;1.27;;;22.00;48.10;;;;;;4993950;28;20549;-59
2022/04/24 09:26:53;;;;;;;4.20;1.10;;;22.00;48.10;;;;;;4994137;28;20133;-58
2022/04/24 09:29:21;;;;;;;4.45;1.08;;;22.00;48.20;;;;;;4994183;28;20089;-58
2022/04/24 09:31:47;;;;;;;2.10;0.98;;;22.00;48.10;;;;;;4993264;28;20085;-58
2022/04/24 09:34:17;;;;;;;3.67;1.10;;;22.00;48.10;;;;;;4993468;28;20129;-58
2022/04/24 09:36:46;;;;;;;3.13;1.50;;;22.00;48.10;;;;;;4994075;28;20051;-57
2022/04/24 09:39:11;;;;;;;2.05;1.40;;;22.10;48.20;;;;;;4993291;28;20043;-57
2022/04/24 09:41:37;;;;;;;2.65;1.10;;;22.10;48.20;;;;;;4993933;28;20047;-58
2022/04/24 09:44:13;;;;;;;3.15;1.25;;;22.10;48.20;;;;;;4979123;28;20078;-59
2022/04/24 09:46:39;;;;;;;4.95;1.08;;;22.10;48.20;;;;;;4975614;28;20047;-58
2022/04/24 09:49:04;;;;;;;2.67;1.08;;;22.10;48.10;;;;;;4974223;28;20034;-58
2022/04/24 09:51:30;;;;;;;2.33;1.30;;;22.10;48.00;;;;;;4972635;28;20546;-58
2022/04/24 09:53:58;;;;;;;4.45;1.00;;;22.10;48.00;;;;;;4973517;28;20515;-58
2022/04/24 09:56:27;;;;;;;2.85;1.15;;;22.10;47.90;;;;;;4974138;28;20074;-58
2022/04/24 09:58:53;;;;;;;2.33;1.10;;;22.10;47.70;;;;;;4973481;28;20047;-58
2022/04/24 10:01:18;;;;;;;3.67;1.15;;;22.10;47.60;;;;;;4974378;28;20545;-57
2022/04/24 10:03:44;;;;;;;6.53;1.67;;;22.10;47.40;;;;;;4989237;28;20073;-58
2022/04/24 10:06:09;;;;;;;3.63;1.50;;;22.10;47.30;;;;;;4991848;28;20081;-58
2022/04/24 10:08:35;;;;;;;5.53;1.90;;;22.10;47.20;;;;;;4992040;28;20042;-58
2022/04/24 10:11:10;;;;;;;7.45;2.10;;;22.10;47.10;;;;;;4975842;28;20478;-57
2022/04/24 10:13:38;;;;;;;7.05;2.13;;;22.10;47.30;;;;;;4992394;28;20398;-58
2022/04/24 10:16:32;;;;;;;5.85;1.80;;;22.10;47.40;;;;;;4991590;28;20054;-58
2022/04/24 10:19:10;;;;;;;4.38;1.90;;;22.10;47.50;;;;;;4992101;28;20038;-58
2022/04/24 10:21:50;;;;;;;7.55;2.13;;;22.10;47.60;;;;;;4992376;28;20457;-58
2022/04/24 10:24:16;;;;;;;5.25;2.05;;;22.10;47.70;;;;;;4976022;28;20046;-58
2022/04/24 10:26:54;;;;;;;5.97;1.80;;;22.10;47.80;;;;;;4991966;28;20046;-58
2022/04/24 10:29:19;;;;;;;4.68;1.88;;;22.20;48.00;;;;;;4991978;28;20099;-58
2022/04/24 10:31:48;;;;;;;3.90;1.50;;;22.20;48.00;;;;;;4978215;28;20059;-58
2022/04/24 10:34:14;;;;;;;3.75;1.55;;;22.20;47.90;;;;;;4973019;28;20043;-58
2022/04/24 10:37:01;;;;;;;4.72;1.90;;;22.20;47.80;;;;;;4973534;28;20043;-58
2022/04/24 10:39:28;;;;;;;4.28;1.77;;;22.20;47.50;;;;;;4974150;28;20125;-58
2022/04/24 10:41:58;;;;;;;5.32;2.00;;;22.20;47.60;;;;;;4972935;28;20046;-58
2022/04/24 10:44:24;;;;;;;6.03;2.20;;;22.20;47.70;;;;;;4973888;28;20057;-58
2022/04/24 10:46:50;;;;;;;4.32;1.50;;;22.20;47.70;;;;;;4973506;28;20047;-58
2022/04/24 10:49:18;;;;;;;4.05;1.83;;;22.20;47.70;;;;;;4973084;28;20042;-58
2022/04/24 10:51:45;;;;;;;4.28;1.55;;;22.20;47.70;;;;;;4973765;28;20050;-58
2022/04/24 10:54:13;;;;;;;4.25;1.73;;;22.20;47.80;;;;;;4973899;28;20046;-58
2022/04/24 10:56:41;;;;;;;4.53;1.60;;;22.20;47.80;;;;;;4972541;28;20042;-58
2022/04/24 10:59:13;;;;;;;4.03;1.70;;;22.20;47.80;;;;;;4974324;28;20095;-58
2022/04/24 11:01:44;;;;;;;2.75;1.15;;;22.20;47.70;;;;;;4992181;28;20054;-58
2022/04/24 11:04:11;;;;;;;3.13;1.60;;;22.20;47.40;;;;;;4993290;28;20506;-57
2022/04/24 11:06:37;;;;;;;3.63;1.50;;;22.20;47.30;;;;;;4996374;28;20046;-58
2022/04/24 11:09:07;;;;;;;4.28;1.48;;;22.20;47.20;;;;;;4995939;28;20053;-58
2022/04/24 11:11:33;;;;;;;4.70;1.40;;;22.20;47.20;;;;;;4994107;28;20050;-58
2022/04/24 11:14:02;;;;;;;5.25;1.90;;;22.20;47.20;;;;;;4986766;28;20054;-57
2022/04/24 11:16:28;;;;;;;2.83;1.40;;;22.20;47.10;;;;;;4986962;28;20045;-57
2022/04/24 11:18:54;;;;;;;3.50;1.45;;;22.20;46.90;;;;;;4985443;28;20125;-57
2022/04/24 11:21:21;;;;;;;4.43;1.48;;;22.20;47.00;;;;;;4986827;28;20065;-57
2022/04/24 11:23:47;;;;;;;3.63;1.23;;;22.10;46.90;;;;;;4986375;28;20042;-57
2022/04/24 11:26:12;;;;;;;4.82;1.42;;;22.10;46.80;;;;;;4985147;28;20042;-57
2022/04/24 11:28:45;;;;;;;3.70;1.42;;;22.20;46.90;;;;;;4987098;28;20040;-57
2022/04/24 11:31:21;;;;;;;2.00;1.20;;;22.20;46.90;;;;;;4986700;28;20039;-57
2022/04/24 11:34:00;;;;;;;3.35;1.40;;;22.10;46.80;;;;;;4992435;28;20552;-57
2022/04/24 11:36:33;;;;;;;2.90;1.52;;;22.20;46.90;;;;;;4996610;28;20046;-57
2022/04/24 11:39:04;;;;;;;4.15;1.20;;;22.20;46.90;;;;;;4995403;28;20050;-57
2022/04/24 11:41:31;;;;;;;2.85;1.25;;;22.20;46.70;;;;;;4996471;28;20095;-57
2022/04/24 11:44:00;;;;;;;3.42;1.50;;;22.20;46.60;;;;;;4995793;28;20046;-56
2022/04/24 11:51:54;;;;;;;3.42;1.50;;;22.20;46.10;;;;;;4995036;28;20402;-58
2022/04/24 11:54:20;;;;;;;2.63;1.25;;;22.10;46.00;;;;;;4995981;28;20513;-58
2022/04/24 11:56:50;;;;;;;3.45;1.33;;;22.10;45.90;;;;;;4994523;28;20054;-58
2022/04/24 11:59:19;;;;;;;4.63;1.20;;;22.20;46.10;;;;;;4995036;28;20391;-58
2022/04/24 12:01:55;;;;;;;4.03;1.45;;;22.20;46.10;;;;;;4995685;28;20046;-58
2022/04/24 12:04:21;;;;;;;3.90;1.20;;;22.20;46.10;;;;;;4996059;28;20061;-57
2022/04/24 12:06:47;;;;;;;4.07;1.17;;;22.20;46.20;;;;;;4993924;28;20057;-57
2022/04/24 12:09:14;;;;;;;3.33;1.25;;;22.20;46.20;;;;;;4995586;28;20149;-57
2022/04/24 12:11:39;;;;;;;2.42;1.42;;;22.20;46.40;;;;;;4995076;28;20069;-57
2022/04/24 12:14:11;;;;;;;3.03;1.17;;;22.20;46.50;;;;;;4993485;28;20430;-57
2022/04/24 12:16:38;;;;;;;4.15;1.10;;;22.30;46.60;;;;;;4995254;28;20034;-57
2022/04/24 12:19:03;;;;;;;3.30;1.10;;;22.30;47.40;;;;;;4994643;28;20046;-58
2022/04/24 12:21:31;;;;;;;6.03;1.65;;;22.20;46.60;;;;;;4994975;28;20042;-58
2022/04/24 12:23:57;;;;;;;6.28;1.38;;;22.20;46.70;;;;;;4993646;28;20406;-58
2022/04/24 12:26:22;;;;;;;3.65;1.40;;;22.20;46.80;;;;;;4994080;28;20494;-59
2022/04/24 12:28:48;;;;;;;4.05;1.27;;;22.20;46.90;;;;;;4994894;28;20042;-58
2022/04/24 12:31:21;;;;;;;5.47;1.35;;;22.20;47.10;;;;;;4993595;28;20053;-58
2022/04/24 12:33:47;;;;;;;5.82;1.50;;;22.20;47.20;;;;;;4994255;28;20050;-58
2022/04/24 12:36:14;;;;;;;3.25;1.30;;;22.20;47.20;;;;;;4994980;28;20042;-58
2022/04/24 12:38:40;;;;;;;2.25;1.20;;;22.20;47.30;;;;;;4994736;28;20133;-59
2022/04/24 12:41:10;;;;;;;5.60;1.08;;;22.30;47.40;;;;;;4994502;28;20118;-58
2022/04/24 12:43:35;;;;;;;10.98;1.42;;;22.30;47.40;;;;;;4994691;28;20513;-58
2022/04/24 12:46:01;;;;;;;3.55;1.20;;;22.30;47.60;;;;;;4993514;28;20054;-57
2022/04/24 12:48:27;;;;;;;2.22;0.90;;;22.30;47.70;;;;;;4993994;28;20399;-55
2022/04/24 12:50:53;;;;;;;5.30;1.42;;;22.30;47.70;;;;;;4993011;28;20089;-56